| time (UTC) | temp C | wind direction | speed KPH | gust KPH | rain 1hr cm | rain 24hr cm | rain mn cm | humidity % | barometer mb |
| 20260505140653 | -17 | 270 | 11.3 | 132.0 | 0.00 | 0.00 | 0.00 | 8 | 1009.0 |
| 20260505140353 | -17 | 270 | 11.3 | 132.0 | 0.00 | 0.00 | 0.00 | 8 | 1009.0 |
| 20260505124853 | -17 | 270 | 6.4 | 86.9 | 0.00 | 0.00 | 0.00 | 9 | 1009.0 |
| 20260505124553 | -17 | 270 | 6.4 | 86.9 | 0.00 | 0.00 | 0.00 | 9 | 1009.0 |
| 20260505124253 | -17 | 270 | 6.4 | 86.9 | 0.00 | 0.00 | 0.00 | 9 | 1009.0 |
| 20260505123953 | -17 | 270 | 6.4 | 86.9 | 0.00 | 0.00 | 0.00 | 9 | 1009.0 |
| 20260505123653 | -17 | 270 | 6.4 | 57.9 | 0.00 | 0.00 | 0.00 | 9 | 1009.0 |
| 20260505123353 | -17 | 270 | 6.4 | 57.9 | 0.00 | 0.00 | 0.00 | 9 | 1009.0 |
| 20260505123053 | -17 | 270 | 6.4 | 57.9 | 0.00 | 0.00 | 0.00 | 9 | 1009.0 |
| 20260505122753 | -17 | 270 | 6.4 | 57.9 | 0.00 | 0.00 | 0.00 | 9 | 1009.0 |
| 20260505122453 | -17 | 270 | 6.4 | 57.9 | 0.00 | 0.00 | 0.00 | 8 | 1009.0 |
| 20260505122153 | -17 | 270 | 6.4 | 57.9 | 0.00 | 0.00 | 0.00 | 8 | 1009.0 |
| 20260505121853 | -17 | 270 | 8.0 | 80.5 | 0.00 | 0.00 | 0.00 | 8 | 1009.0 |
| 20260505121553 | -17 | 270 | 8.0 | 80.5 | 0.00 | 0.00 | 0.00 | 8 | 1009.0 |
| 20260505121253 | -17 | 270 | 8.0 | 80.5 | 0.00 | 0.00 | 0.00 | 8 | 1009.0 |
| 20260505120953 | -17 | 270 | 8.0 | 80.5 | 0.00 | 0.00 | 0.00 | 8 | 1009.0 |
| 20260505120653 | -17 | 270 | 8.0 | 80.5 | 0.00 | 0.00 | 0.00 | 8 | 1009.0 |
| 20260505120353 | -17 | 270 | 8.0 | 80.5 | 0.00 | 0.00 | 0.00 | 8 | 1009.0 |
| 20260505120053 | -17 | 270 | 8.0 | 80.5 | 0.00 | 0.00 | 0.00 | 8 | 1009.0 |
| 20260505115753 | -17 | 270 | 8.0 | 80.5 | 0.00 | 0.00 | 0.00 | 8 | 1009.0 |
| 20260505115454 | -17 | 270 | 8.0 | 80.5 | 0.00 | 0.00 | 0.00 | 8 | 1009.0 |
| 20260505115153 | -17 | 270 | 8.0 | 80.5 | 0.00 | 0.00 | 0.00 | 8 | 1009.0 |
| 20260505114853 | -17 | 270 | 8.0 | 80.5 | 0.00 | 0.00 | 0.00 | 8 | 1009.0 |
| 20260505114553 | -17 | 270 | 8.0 | 80.5 | 0.00 | 0.00 | 0.00 | 8 | 1009.0 |
| 20260505114253 | -17 | 270 | 8.0 | 80.5 | 0.00 | 0.00 | 0.00 | 8 | 1009.0 |
| 20260505113953 | -17 | 270 | 8.0 | 80.5 | 0.00 | 0.00 | 0.00 | 8 | 1009.0 |
| 20260505113653 | -17 | 270 | 8.0 | 80.5 | 0.00 | 0.00 | 0.00 | 8 | 1009.0 |
| 20260505113353 | -17 | 270 | 8.0 | 80.5 | 0.00 | 0.00 | 0.00 | 8 | 1009.0 |
| 20260505113053 | -17 | 270 | 9.7 | 80.5 | 0.00 | 0.00 | 0.00 | 8 | 1009.0 |
| 20260505112753 | -17 | 270 | 9.7 | 80.5 | 0.00 | 0.00 | 0.00 | 8 | 1009.0 |
| 20260505112453 | -17 | 270 | 9.7 | 80.5 | 0.00 | 0.00 | 0.00 | 8 | 1009.0 |
| 20260505112153 | -17 | 270 | 9.7 | 80.5 | 0.00 | 0.00 | 0.00 | 8 | 1009.0 |
| 20260505111853 | -17 | 270 | 9.7 | 80.5 | 0.00 | 0.00 | 0.00 | 8 | 1009.0 |
| 20260505111553 | -17 | 270 | 6.4 | 57.9 | 0.00 | 0.00 | 0.00 | 8 | 1009.0 |
| 20260505111253 | -17 | 270 | 6.4 | 57.9 | 0.00 | 0.00 | 0.00 | 8 | 1009.0 |
| 20260505110953 | -17 | 270 | 6.4 | 57.9 | 0.00 | 0.00 | 0.00 | 8 | 1009.0 |
| 20260505110653 | -17 | 270 | 6.4 | 57.9 | 0.00 | 0.00 | 0.00 | 8 | 1009.0 |
| 20260505110353 | -17 | 270 | 6.4 | 57.9 | 0.00 | 0.00 | 0.00 | 8 | 1009.0 |
| 20260505102154 | -17 | 270 | 4.8 | 45.1 | 0.00 | 0.00 | 0.00 | 8 | 1009.0 |
| 20260505101854 | -17 | 270 | 4.8 | 45.1 | 0.00 | 0.00 | 0.00 | 8 | 1009.0 |
| 20260505101554 | -17 | 270 | 4.8 | 45.1 | 0.00 | 0.00 | 0.00 | 8 | 1009.0 |
| 20260505101254 | -17 | 270 | 4.8 | 45.1 | 0.00 | 0.00 | 0.00 | 8 | 1009.0 |
| 20260505100954 | -17 | 270 | 4.8 | 45.1 | 0.00 | 0.00 | 0.00 | 8 | 1009.0 |
| 20260505100654 | -17 | 270 | 4.8 | 45.1 | 0.00 | 0.00 | 0.00 | 8 | 1009.0 |
| 20260505100354 | -17 | 270 | 4.8 | 45.1 | 0.00 | 0.00 | 0.00 | 8 | 1009.0 |
| 20260505100054 | -17 | 270 | 4.8 | 45.1 | 0.00 | 0.00 | 0.00 | 9 | 1009.0 |
| 20260505095754 | -17 | 270 | 4.8 | 45.1 | 0.00 | 0.00 | 0.00 | 9 | 1009.0 |
| 20260505095454 | -17 | 270 | 4.8 | 45.1 | 0.00 | 0.00 | 0.00 | 9 | 1009.0 |
| 20260505095154 | -17 | 270 | 4.8 | 45.1 | 0.00 | 0.00 | 0.00 | 9 | 1009.0 |
| 20260505094854 | -17 | 270 | 4.8 | 45.1 | 0.00 | 0.00 | 0.00 | 9 | 1009.0 |
| 20260505094554 | -17 | 270 | 4.8 | 45.1 | 0.00 | 0.00 | 0.00 | 9 | 1009.0 |
| 20260505094254 | -17 | 270 | 4.8 | 45.1 | 0.00 | 0.00 | 0.00 | 9 | 1009.0 |
| 20260505093954 | -17 | 225 | 3.2 | 45.1 | 0.00 | 0.00 | 0.00 | 9 | 1009.0 |
| 20260505093654 | -17 | 225 | 3.2 | 45.1 | 0.00 | 0.00 | 0.00 | 9 | 1009.0 |
| 20260505093354 | -17 | 225 | 3.2 | 45.1 | 0.00 | 0.00 | 0.00 | 9 | 1009.0 |
| 20260505093054 | -17 | 225 | 3.2 | 45.1 | 0.00 | 0.00 | 0.00 | 9 | 1009.0 |
| 20260505092754 | -17 | 225 | 3.2 | 45.1 | 0.00 | 0.00 | 0.00 | 9 | 1009.0 |
| 20260505092454 | -17 | 225 | 3.2 | 45.1 | 0.00 | 0.00 | 0.00 | 9 | 1009.0 |
| 20260505092154 | -17 | 90 | 1.6 | 40.2 | 0.00 | 0.00 | 0.00 | 9 | 1010.0 |
| 20260505091854 | -17 | 90 | 1.6 | 40.2 | 0.00 | 0.00 | 0.00 | 9 | 1010.0 |
| 20260505091554 | -17 | 90 | 1.6 | 40.2 | 0.00 | 0.00 | 0.00 | 9 | 1010.0 |
| 20260505091254 | -17 | 90 | 1.6 | 40.2 | 0.00 | 0.00 | 0.00 | 9 | 1010.0 |
| 20260505090954 | -17 | 90 | 1.6 | 40.2 | 0.00 | 0.00 | 0.00 | 9 | 1010.0 |
| 20260505090654 | -17 | 90 | 1.6 | 40.2 | 0.00 | 0.00 | 0.00 | 9 | 1010.0 |
| 20260505090354 | -17 | 90 | 1.6 | 40.2 | 0.00 | 0.00 | 0.00 | 9 | 1010.0 |
| 20260505090054 | -17 | 90 | 1.6 | 40.2 | 0.00 | 0.00 | 0.00 | 9 | 1010.0 |
| 20260505085754 | -17 | 90 | 1.6 | 40.2 | 0.00 | 0.00 | 0.00 | 9 | 1010.0 |
| 20260505085454 | -17 | 90 | 1.6 | 40.2 | 0.00 | 0.00 | 0.00 | 9 | 1010.0 |
| 20260505085153 | -17 | 90 | 1.6 | 40.2 | 0.00 | 0.00 | 0.00 | 9 | 1010.0 |
| 20260505084854 | -17 | 90 | 1.6 | 40.2 | 0.00 | 0.00 | 0.00 | 9 | 1010.0 |
| 20260505084553 | -17 | 90 | 1.6 | 40.2 | 0.00 | 0.00 | 0.00 | 9 | 1010.0 |
| 20260505084254 | -17 | 90 | 1.6 | 40.2 | 0.00 | 0.00 | 0.00 | 9 | 1010.0 |
| 20260505083954 | -17 | 90 | 1.6 | 40.2 | 0.00 | 0.00 | 0.00 | 9 | 1010.0 |
| 20260505083653 | -17 | 90 | 1.6 | 40.2 | 0.00 | 0.00 | 0.00 | 9 | 1010.0 |
| 20260505083353 | -17 | 225 | 1.6 | 16.1 | 0.00 | 0.00 | 0.00 | 9 | 1011.0 |
| 20260505083053 | -17 | 225 | 1.6 | 16.1 | 0.00 | 0.00 | 0.00 | 9 | 1011.0 |
| 20260505082753 | -17 | 225 | 1.6 | 16.1 | 0.00 | 0.00 | 0.00 | 9 | 1011.0 |
| 20260505082453 | -17 | 225 | 1.6 | 16.1 | 0.00 | 0.00 | 0.00 | 9 | 1011.0 |
| 20260505082154 | -17 | 225 | 1.6 | 16.1 | 0.00 | 0.00 | 0.00 | 9 | 1011.0 |
| 20260505081854 | -17 | 225 | 1.6 | 16.1 | 0.00 | 0.00 | 0.00 | 9 | 1011.0 |
| 20260505081553 | -17 | 225 | 1.6 | 16.1 | 0.00 | 0.00 | 0.00 | 9 | 1011.0 |
| 20260505081253 | -17 | 225 | 1.6 | 16.1 | 0.00 | 0.00 | 0.00 | 9 | 1011.0 |
| 20260505080954 | -17 | 225 | 1.6 | 16.1 | 0.00 | 0.00 | 0.00 | 9 | 1011.0 |
| 20260505080653 | -17 | 225 | 1.6 | 16.1 | 0.00 | 0.00 | 0.00 | 9 | 1011.0 |
| 20260505080353 | -17 | 225 | 1.6 | 16.1 | 0.00 | 0.00 | 0.00 | 9 | 1011.0 |
| 20260505080054 | -17 | 225 | 1.6 | 16.1 | 0.00 | 0.00 | 0.00 | 9 | 1011.0 |
| 20260505075753 | -17 | 225 | 1.6 | 16.1 | 0.00 | 0.00 | 0.00 | 9 | 1011.0 |
| 20260505075454 | -17 | 225 | 1.6 | 16.1 | 0.00 | 0.00 | 0.00 | 9 | 1011.0 |
| 20260505075153 | -17 | 225 | 1.6 | 16.1 | 0.00 | 0.00 | 0.00 | 9 | 1011.0 |
| 20260505074853 | -17 | 225 | 1.6 | 16.1 | 0.00 | 0.00 | 0.00 | 9 | 1011.0 |
| 20260505074553 | -17 | 225 | 1.6 | 16.1 | 0.00 | 0.00 | 0.00 | 9 | 1011.0 |
| 20260505074253 | -17 | 225 | 1.6 | 16.1 | 0.00 | 0.00 | 0.00 | 9 | 1011.0 |
| 20260505073953 | -17 | 225 | 1.6 | 16.1 | 0.00 | 0.00 | 0.00 | 9 | 1011.0 |
| 20260505073653 | -17 | 225 | 1.6 | 16.1 | 0.00 | 0.00 | 0.00 | 9 | 1011.0 |
| 20260505073353 | -17 | 225 | 1.6 | 16.1 | 0.00 | 0.00 | 0.00 | 9 | 1011.0 |
| 20260505073053 | -17 | 225 | 1.6 | 16.1 | 0.00 | 0.00 | 0.00 | 9 | 1011.0 |
| 20260505072753 | -17 | 315 | 1.6 | 22.5 | 0.00 | 0.00 | 0.00 | 9 | 1011.0 |
| 20260505072453 | -17 | 315 | 1.6 | 22.5 | 0.00 | 0.00 | 0.00 | 9 | 1011.0 |
| 20260505072153 | -17 | 315 | 1.6 | 22.5 | 0.00 | 0.00 | 0.00 | 9 | 1011.0 |
| 20260505071853 | -17 | 315 | 1.6 | 22.5 | 0.00 | 0.00 | 0.00 | 9 | 1011.0 |
| 20260505071553 | -17 | 315 | 1.6 | 22.5 | 0.00 | 0.00 | 0.00 | 9 | 1011.0 |
| 20260505071253 | -17 | 315 | 1.6 | 22.5 | 0.00 | 0.00 | 0.00 | 9 | 1011.0 |
| 20260505070953 | -17 | 315 | 1.6 | 22.5 | 0.00 | 0.00 | 0.00 | 9 | 1011.0 |
| 20260505070653 | -17 | 315 | 1.6 | 22.5 | 0.00 | 0.00 | 0.00 | 9 | 1011.0 |
| 20260505070353 | -17 | 315 | 1.6 | 22.5 | 0.00 | 0.00 | 0.00 | 10 | 1011.0 |
| 20260505070053 | -17 | 315 | 1.6 | 22.5 | 0.00 | 0.00 | 0.00 | 9 | 1011.0 |
| 20260505065753 | -17 | 315 | 1.6 | 22.5 | 0.00 | 0.00 | 0.00 | 10 | 1011.0 |
| 20260505065453 | -17 | 315 | 1.6 | 22.5 | 0.00 | 0.00 | 0.00 | 10 | 1011.0 |
| 20260505065153 | -17 | 315 | 1.6 | 22.5 | 0.00 | 0.00 | 0.00 | 10 | 1011.0 |
| 20260505064853 | -17 | 315 | 1.6 | 22.5 | 0.00 | 0.00 | 0.00 | 10 | 1011.0 |
| 20260505064553 | -17 | 315 | 1.6 | 22.5 | 0.00 | 0.00 | 0.00 | 10 | 1011.0 |
| 20260505064253 | -17 | 315 | 1.6 | 22.5 | 0.00 | 0.00 | 0.00 | 10 | 1011.0 |
| 20260505063953 | -17 | 270 | 1.6 | 16.1 | 0.00 | 0.00 | 0.00 | 10 | 1011.0 |
| 20260505063653 | -17 | 270 | 1.6 | 16.1 | 0.00 | 0.00 | 0.00 | 10 | 1011.0 |
| 20260505063353 | -17 | 270 | 1.6 | 16.1 | 0.00 | 0.00 | 0.00 | 10 | 1011.0 |
| 20260505063053 | -17 | 270 | 1.6 | 16.1 | 0.00 | 0.00 | 0.00 | 10 | 1011.0 |
| 20260505062753 | -17 | 270 | 1.6 | 16.1 | 0.00 | 0.00 | 0.00 | 10 | 1011.0 |
| 20260505062453 | -17 | 0 | 1.6 | 16.1 | 0.00 | 0.00 | 0.00 | 10 | 1011.0 |
| 20260505062153 | -17 | 0 | 1.6 | 16.1 | 0.00 | 0.00 | 0.00 | 10 | 1011.0 |
| 20260505061853 | -17 | 0 | 1.6 | 16.1 | 0.00 | 0.00 | 0.00 | 10 | 1011.0 |
| 20260505061553 | -17 | 0 | 1.6 | 16.1 | 0.00 | 0.00 | 0.00 | 10 | 1011.0 |
| 20260505061253 | -17 | 0 | 1.6 | 16.1 | 0.00 | 0.00 | 0.00 | 10 | 1011.0 |
| 20260505060953 | -17 | 0 | 1.6 | 16.1 | 0.00 | 0.00 | 0.00 | 10 | 1011.0 |
| 20260505060653 | -17 | 0 | 1.6 | 16.1 | 0.00 | 0.00 | 0.00 | 10 | 1011.0 |
| 20260505060353 | -17 | 0 | 1.6 | 16.1 | 0.00 | 0.00 | 0.00 | 10 | 1011.0 |
| 20260505060053 | -17 | 0 | 1.6 | 16.1 | 0.00 | 0.00 | 0.00 | 10 | 1011.0 |
| 20260505055753 | -17 | 0 | 1.6 | 16.1 | 0.00 | 0.00 | 0.00 | 10 | 1011.0 |
| 20260505055453 | -17 | 0 | 1.6 | 16.1 | 0.00 | 0.00 | 0.00 | 10 | 1011.0 |
| 20260505055153 | -17 | 0 | 1.6 | 16.1 | 0.00 | 0.00 | 0.00 | 10 | 1011.0 |
| 20260505054853 | -17 | 0 | 1.6 | 16.1 | 0.00 | 0.00 | 0.00 | 10 | 1011.0 |
| 20260505054553 | -17 | 0 | 1.6 | 16.1 | 0.00 | 0.00 | 0.00 | 10 | 1011.0 |
| 20260505054253 | -17 | 0 | 1.6 | 16.1 | 0.00 | 0.00 | 0.00 | 10 | 1011.0 |
| 20260505053953 | -17 | 0 | 1.6 | 16.1 | 0.00 | 0.00 | 0.00 | 10 | 1011.0 |
| 20260505053653 | -17 | 0 | 1.6 | 16.1 | 0.00 | 0.00 | 0.00 | 10 | 1011.0 |
| 20260505053353 | -17 | 0 | 1.6 | 16.1 | 0.00 | 0.00 | 0.00 | 10 | 1011.0 |
| 20260505053053 | -17 | 0 | 1.6 | 16.1 | 0.00 | 0.00 | 0.00 | 10 | 1011.0 |
| 20260505052753 | -17 | 0 | 1.6 | 16.1 | 0.00 | 0.00 | 0.00 | 10 | 1011.0 |
| 20260505052453 | -17 | 0 | 1.6 | 16.1 | 0.00 | 0.00 | 0.00 | 10 | 1011.0 |
| 20260505052154 | -17 | 0 | 1.6 | 16.1 | 0.00 | 0.00 | 0.00 | 10 | 1011.0 |
| 20260505051853 | -17 | 225 | 1.6 | 22.5 | 0.00 | 0.00 | 0.00 | 10 | 1011.0 |
| 20260505051553 | -17 | 225 | 1.6 | 22.5 | 0.00 | 0.00 | 0.00 | 10 | 1011.0 |
| 20260505051253 | -17 | 225 | 1.6 | 22.5 | 0.00 | 0.00 | 0.00 | 10 | 1011.0 |
| 20260505050953 | -17 | 225 | 1.6 | 22.5 | 0.00 | 0.00 | 0.00 | 10 | 1011.0 |
| 20260505050653 | -17 | 225 | 1.6 | 22.5 | 0.00 | 0.00 | 0.00 | 10 | 1011.0 |
| 20260505050353 | -17 | 225 | 1.6 | 22.5 | 0.00 | 0.00 | 0.00 | 10 | 1011.0 |
| 20260505041553 | -17 | 270 | 1.6 | 16.1 | 0.00 | 0.00 | 0.00 | 10 | 1012.0 |
| 20260505041253 | -17 | 270 | 1.6 | 16.1 | 0.00 | 0.00 | 0.00 | 10 | 1012.0 |
| 20260505040953 | -17 | 270 | 1.6 | 16.1 | 0.00 | 0.00 | 0.00 | 10 | 1012.0 |
| 20260505040653 | -17 | 270 | 1.6 | 16.1 | 0.00 | 0.00 | 0.00 | 10 | 1012.0 |
| 20260505040353 | -17 | 270 | 1.6 | 16.1 | 0.00 | 0.00 | 0.00 | 10 | 1012.0 |
| 20260505040053 | -17 | 270 | 1.6 | 16.1 | 0.00 | 0.00 | 0.00 | 10 | 1012.0 |
| 20260505035753 | -17 | 270 | 1.6 | 16.1 | 0.00 | 0.00 | 0.00 | 10 | 1012.0 |
| 20260505035454 | -17 | 270 | 1.6 | 16.1 | 0.00 | 0.00 | 0.00 | 10 | 1012.0 |
| 20260505035154 | -17 | 270 | 1.6 | 16.1 | 0.00 | 0.00 | 0.00 | 10 | 1012.0 |
| 20260505034854 | -17 | 270 | 1.6 | 16.1 | 0.00 | 0.00 | 0.00 | 10 | 1012.0 |
| 20260505034554 | -17 | 270 | 1.6 | 16.1 | 0.00 | 0.00 | 0.00 | 10 | 1012.0 |
| 20260505034254 | -17 | 270 | 1.6 | 16.1 | 0.00 | 0.00 | 0.00 | 10 | 1012.0 |
| 20260505033954 | -17 | 270 | 1.6 | 16.1 | 0.00 | 0.00 | 0.00 | 10 | 1012.0 |
| 20260505033654 | -17 | 270 | 1.6 | 16.1 | 0.00 | 0.00 | 0.00 | 10 | 1012.0 |
| 20260505033354 | -17 | 270 | 1.6 | 16.1 | 0.00 | 0.00 | 0.00 | 10 | 1012.0 |
| 20260505033054 | -17 | 270 | 1.6 | 16.1 | 0.00 | 0.00 | 0.00 | 10 | 1012.0 |
| 20260505032754 | -17 | 270 | 0.0 | 11.3 | 0.00 | 0.00 | 0.00 | 10 | 1012.0 |
| 20260505032454 | -17 | 270 | 0.0 | 11.3 | 0.00 | 0.00 | 0.00 | 10 | 1012.0 |
| 20260505032154 | -17 | 270 | 0.0 | 11.3 | 0.00 | 0.00 | 0.00 | 10 | 1012.0 |
| 20260505031854 | -17 | 270 | 0.0 | 11.3 | 0.00 | 0.00 | 0.00 | 10 | 1012.0 |
| 20260505031554 | -17 | 270 | 0.0 | 11.3 | 0.00 | 0.00 | 0.00 | 10 | 1012.0 |
| 20260505031254 | -17 | 270 | 0.0 | 11.3 | 0.00 | 0.00 | 0.00 | 10 | 1012.0 |
| 20260505030954 | -17 | 270 | 0.0 | 11.3 | 0.00 | 0.00 | 0.00 | 10 | 1012.0 |
| 20260505030654 | -17 | 270 | 0.0 | 11.3 | 0.00 | 0.00 | 0.00 | 10 | 1012.0 |
| 20260505030354 | -17 | 270 | 0.0 | 11.3 | 0.00 | 0.00 | 0.00 | 10 | 1012.0 |
| 20260505030054 | -17 | 270 | 0.0 | 11.3 | 0.00 | 0.00 | 0.00 | 10 | 1012.0 |
| 20260505025754 | -17 | 270 | 0.0 | 11.3 | 0.00 | 0.00 | 0.00 | 10 | 1012.0 |
| 20260505025454 | -17 | 270 | 0.0 | 11.3 | 0.00 | 0.00 | 0.00 | 10 | 1012.0 |
| 20260505025154 | -17 | 270 | 0.0 | 11.3 | 0.00 | 0.00 | 0.00 | 10 | 1012.0 |
| 20260505024854 | -17 | 270 | 0.0 | 11.3 | 0.00 | 0.00 | 0.00 | 10 | 1012.0 |
| 20260505024554 | -17 | 270 | 0.0 | 11.3 | 0.00 | 0.00 | 0.00 | 10 | 1012.0 |
| 20260505024254 | -17 | 270 | 0.0 | 11.3 | 0.00 | 0.00 | 0.00 | 10 | 1012.0 |
| 20260505023954 | -17 | 270 | 0.0 | 11.3 | 0.00 | 0.00 | 0.00 | 10 | 1012.0 |
| 20260505023654 | -17 | 270 | 0.0 | 11.3 | 0.00 | 0.00 | 0.00 | 10 | 1012.0 |
| 20260505023354 | -17 | 270 | 0.0 | 11.3 | 0.00 | 0.00 | 0.00 | 10 | 1012.0 |
| 20260505023054 | -17 | 270 | 0.0 | 11.3 | 0.00 | 0.00 | 0.00 | 10 | 1012.0 |
| 20260505022754 | -17 | 270 | 0.0 | 11.3 | 0.00 | 0.00 | 0.00 | 10 | 1012.0 |
| 20260505022454 | -17 | 270 | 0.0 | 11.3 | 0.00 | 0.00 | 0.00 | 10 | 1012.0 |
| 20260505022154 | -17 | 270 | 0.0 | 11.3 | 0.00 | 0.00 | 0.00 | 10 | 1012.0 |
| 20260505021854 | -17 | 45 | 1.6 | 22.5 | 0.00 | 0.00 | 0.00 | 10 | 1012.0 |
| 20260505021554 | -17 | 45 | 1.6 | 22.5 | 0.00 | 0.00 | 0.00 | 10 | 1012.0 |
| 20260505021254 | -17 | 45 | 1.6 | 22.5 | 0.00 | 0.00 | 0.00 | 10 | 1012.0 |
| 20260505020953 | -17 | 45 | 1.6 | 22.5 | 0.00 | 0.00 | 0.00 | 10 | 1012.0 |
| 20260505020653 | -17 | 45 | 1.6 | 22.5 | 0.00 | 0.00 | 0.00 | 10 | 1012.0 |
| 20260505020353 | -17 | 45 | 1.6 | 22.5 | 0.00 | 0.00 | 0.00 | 10 | 1012.0 |
| 20260505020053 | -17 | 45 | 1.6 | 22.5 | 0.00 | 0.00 | 0.00 | 10 | 1012.0 |
| 20260505015753 | -17 | 45 | 1.6 | 22.5 | 0.00 | 0.00 | 0.00 | 10 | 1012.0 |
| 20260505015453 | -17 | 45 | 1.6 | 22.5 | 0.00 | 0.00 | 0.00 | 10 | 1012.0 |
| 20260505015153 | -17 | 45 | 1.6 | 22.5 | 0.00 | 0.00 | 0.00 | 10 | 1012.0 |
| 20260505014853 | -17 | 45 | 1.6 | 22.5 | 0.00 | 0.00 | 0.00 | 10 | 1012.0 |
| 20260505014553 | -17 | 45 | 1.6 | 22.5 | 0.00 | 0.00 | 0.00 | 10 | 1012.0 |
| 20260505014253 | -17 | 45 | 1.6 | 22.5 | 0.00 | 0.00 | 0.00 | 10 | 1012.0 |
| 20260505013953 | -17 | 45 | 1.6 | 22.5 | 0.00 | 0.00 | 0.00 | 10 | 1012.0 |
| 20260505013653 | -17 | 45 | 1.6 | 22.5 | 0.00 | 0.00 | 0.00 | 10 | 1012.0 |
| 20260505013353 | -17 | 45 | 1.6 | 22.5 | 0.00 | 0.00 | 0.00 | 10 | 1012.0 |
| 20260505013053 | -17 | 45 | 1.6 | 22.5 | 0.00 | 0.00 | 0.00 | 10 | 1012.0 |
| 20260505012753 | -17 | 45 | 1.6 | 22.5 | 0.00 | 0.00 | 0.00 | 10 | 1012.0 |
| 20260505012453 | -17 | 45 | 1.6 | 22.5 | 0.00 | 0.00 | 0.00 | 10 | 1012.0 |
| 20260505012153 | -17 | 45 | 1.6 | 22.5 | 0.00 | 0.00 | 0.00 | 10 | 1012.0 |
| 20260505011853 | -17 | 45 | 1.6 | 22.5 | 0.00 | 0.00 | 0.00 | 10 | 1012.0 |
| 20260505011553 | -17 | 45 | 1.6 | 29.0 | 0.00 | 0.00 | 0.00 | 10 | 1013.0 |
| 20260505011253 | -17 | 45 | 1.6 | 29.0 | 0.00 | 0.00 | 0.00 | 10 | 1013.0 |
| 20260505010953 | -17 | 45 | 1.6 | 29.0 | 0.00 | 0.00 | 0.00 | 10 | 1013.0 |
| 20260505010653 | -17 | 45 | 1.6 | 29.0 | 0.00 | 0.00 | 0.00 | 10 | 1013.0 |
| 20260505010353 | -17 | 45 | 1.6 | 29.0 | 0.00 | 0.00 | 0.00 | 10 | 1013.0 |
| 20260505010053 | -17 | 45 | 1.6 | 29.0 | 0.00 | 0.00 | 0.00 | 10 | 1013.0 |
| 20260505005753 | -17 | 45 | 1.6 | 29.0 | 0.00 | 0.00 | 0.00 | 10 | 1013.0 |
| 20260505005453 | -17 | 45 | 1.6 | 29.0 | 0.00 | 0.00 | 0.00 | 10 | 1013.0 |
| 20260505005153 | -17 | 45 | 1.6 | 29.0 | 0.00 | 0.00 | 0.00 | 10 | 1013.0 |
| 20260505004853 | -17 | 45 | 1.6 | 29.0 | 0.00 | 0.00 | 0.00 | 10 | 1013.0 |
| 20260505004553 | -17 | 45 | 1.6 | 29.0 | 0.00 | 0.00 | 0.00 | 10 | 1013.0 |
| 20260505004253 | -17 | 45 | 1.6 | 29.0 | 0.00 | 0.00 | 0.00 | 10 | 1013.0 |
| 20260505003953 | -17 | 45 | 1.6 | 29.0 | 0.00 | 0.00 | 0.00 | 10 | 1013.0 |
| 20260505003653 | -17 | 45 | 1.6 | 29.0 | 0.00 | 0.00 | 0.00 | 10 | 1013.0 |
| 20260505003353 | -17 | 45 | 1.6 | 29.0 | 0.00 | 0.00 | 0.00 | 10 | 1013.0 |
| 20260505003053 | -17 | 45 | 1.6 | 29.0 | 0.00 | 0.00 | 0.00 | 10 | 1013.0 |
| 20260505002753 | -17 | 45 | 1.6 | 22.5 | 0.00 | 0.00 | 0.00 | 10 | 1014.0 |
| 20260505002453 | -17 | 45 | 1.6 | 22.5 | 0.00 | 0.00 | 0.00 | 10 | 1014.0 |
| 20260505002153 | -17 | 45 | 1.6 | 22.5 | 0.00 | 0.00 | 0.00 | 10 | 1014.0 |
| 20260505001853 | -17 | 45 | 1.6 | 22.5 | 0.00 | 0.00 | 0.00 | 10 | 1014.0 |
| 20260505001553 | -17 | 45 | 1.6 | 22.5 | 0.00 | 0.00 | 0.00 | 10 | 1014.0 |
| 20260505001253 | -17 | 45 | 1.6 | 22.5 | 0.00 | 0.00 | 0.00 | 10 | 1014.0 |
| 20260505000953 | -17 | 45 | 1.6 | 22.5 | 0.00 | 0.00 | 0.00 | 10 | 1014.0 |
| 20260505000653 | -17 | 45 | 1.6 | 22.5 | 0.00 | 0.00 | 0.00 | 10 | 1014.0 |
| 20260505000353 | -17 | 45 | 1.6 | 22.5 | 0.00 | 0.00 | 0.00 | 10 | 1014.0 |
| 20260505000053 | -17 | 45 | 1.6 | 22.5 | 0.00 | 0.00 | 0.00 | 10 | 1014.0 |
| 20260504235753 | -17 | 45 | 1.6 | 22.5 | 0.00 | 0.00 | 0.00 | 10 | 1014.0 |
| 20260504235453 | -17 | 45 | 1.6 | 22.5 | 0.00 | 0.00 | 0.00 | 10 | 1014.0 |
| 20260504235153 | -17 | 45 | 1.6 | 22.5 | 0.00 | 0.00 | 0.00 | 10 | 1014.0 |
| 20260504234853 | -17 | 45 | 1.6 | 22.5 | 0.00 | 0.00 | 0.00 | 10 | 1014.0 |
| 20260504234553 | -17 | 45 | 1.6 | 22.5 | 0.00 | 0.00 | 0.00 | 10 | 1014.0 |
| 20260504234253 | -17 | 45 | 1.6 | 22.5 | 0.00 | 0.00 | 0.00 | 10 | 1014.0 |
| 20260504233953 | -17 | 45 | 1.6 | 22.5 | 0.00 | 0.00 | 0.00 | 10 | 1014.0 |
| 20260504233653 | -17 | 45 | 1.6 | 22.5 | 0.00 | 0.00 | 0.00 | 10 | 1014.0 |
| 20260504233353 | -17 | 45 | 1.6 | 22.5 | 0.00 | 0.00 | 0.00 | 10 | 1014.0 |
| 20260504233053 | -17 | 45 | 1.6 | 22.5 | 0.00 | 0.00 | 0.00 | 10 | 1014.0 |
| 20260504232753 | -17 | 45 | 1.6 | 22.5 | 0.00 | 0.00 | 0.00 | 10 | 1014.0 |
| 20260504232453 | -17 | 45 | 1.6 | 16.1 | 0.00 | 0.00 | 0.00 | 10 | 1014.0 |
| 20260504232153 | -17 | 45 | 1.6 | 16.1 | 0.00 | 0.00 | 0.00 | 10 | 1014.0 |
| 20260504231853 | -17 | 45 | 1.6 | 16.1 | 0.00 | 0.00 | 0.00 | 10 | 1014.0 |
| 20260504231553 | -17 | 45 | 1.6 | 16.1 | 0.00 | 0.00 | 0.00 | 10 | 1014.0 |
| 20260504231253 | -17 | 45 | 1.6 | 16.1 | 0.00 | 0.00 | 0.00 | 10 | 1014.0 |
| 20260504230953 | -17 | 45 | 1.6 | 16.1 | 0.00 | 0.00 | 0.00 | 10 | 1014.0 |
| 20260504230653 | -17 | 45 | 1.6 | 16.1 | 0.00 | 0.00 | 0.00 | 10 | 1014.0 |
| 20260504230353 | -17 | 45 | 1.6 | 16.1 | 0.00 | 0.00 | 0.00 | 10 | 1014.0 |
| 20260504230053 | -17 | 45 | 1.6 | 16.1 | 0.00 | 0.00 | 0.00 | 10 | 1014.0 |
| 20260504225753 | -17 | 45 | 1.6 | 16.1 | 0.00 | 0.00 | 0.00 | 10 | 1014.0 |
| 20260504225453 | -17 | 45 | 1.6 | 16.1 | 0.00 | 0.00 | 0.00 | 10 | 1014.0 |
| 20260504225153 | -17 | 45 | 1.6 | 16.1 | 0.00 | 0.00 | 0.00 | 10 | 1014.0 |
| 20260504224853 | -17 | 45 | 1.6 | 16.1 | 0.00 | 0.00 | 0.00 | 10 | 1014.0 |
| 20260504224553 | -17 | 45 | 1.6 | 16.1 | 0.00 | 0.00 | 0.00 | 10 | 1014.0 |
| 20260504224253 | -17 | 45 | 1.6 | 16.1 | 0.00 | 0.00 | 0.00 | 10 | 1014.0 |
| 20260504223953 | -17 | 45 | 1.6 | 16.1 | 0.00 | 0.00 | 0.00 | 10 | 1014.0 |
| 20260504223653 | -17 | 45 | 1.6 | 16.1 | 0.00 | 0.00 | 0.00 | 10 | 1014.0 |
| 20260504223353 | -17 | 45 | 1.6 | 16.1 | 0.00 | 0.00 | 0.00 | 10 | 1014.0 |
| 20260504223053 | -17 | 45 | 1.6 | 16.1 | 0.00 | 0.00 | 0.00 | 10 | 1014.0 |
| 20260504222753 | -17 | 45 | 1.6 | 16.1 | 0.00 | 0.00 | 0.00 | 10 | 1014.0 |
| 20260504222453 | -17 | 45 | 1.6 | 16.1 | 0.00 | 0.00 | 0.00 | 10 | 1014.0 |
| 20260504222153 | -17 | 45 | 1.6 | 16.1 | 0.00 | 0.00 | 0.00 | 10 | 1014.0 |
| 20260504221853 | -17 | 0 | 1.6 | 16.1 | 0.00 | 0.00 | 0.00 | 10 | 1014.0 |
| 20260504221553 | -17 | 0 | 1.6 | 16.1 | 0.00 | 0.00 | 0.00 | 10 | 1014.0 |
| 20260504221253 | -17 | 0 | 1.6 | 16.1 | 0.00 | 0.00 | 0.00 | 10 | 1014.0 |
| 20260504220953 | -17 | 0 | 1.6 | 16.1 | 0.00 | 0.00 | 0.00 | 10 | 1014.0 |
| 20260504220653 | -17 | 0 | 1.6 | 16.1 | 0.00 | 0.00 | 0.00 | 10 | 1014.0 |
| 20260504220353 | -17 | 0 | 1.6 | 16.1 | 0.00 | 0.00 | 0.00 | 10 | 1014.0 |
| 20260504220053 | -17 | 0 | 1.6 | 16.1 | 0.00 | 0.00 | 0.00 | 10 | 1014.0 |
| 20260504215753 | -17 | 0 | 1.6 | 16.1 | 0.00 | 0.00 | 0.00 | 10 | 1014.0 |
| 20260504215453 | -17 | 0 | 1.6 | 16.1 | 0.00 | 0.00 | 0.00 | 10 | 1014.0 |
| 20260504215153 | -17 | 0 | 1.6 | 16.1 | 0.00 | 0.00 | 0.00 | 10 | 1014.0 |
| 20260504214853 | -17 | 0 | 1.6 | 16.1 | 0.00 | 0.00 | 0.00 | 10 | 1014.0 |
| 20260504214553 | -17 | 0 | 1.6 | 16.1 | 0.00 | 0.00 | 0.00 | 10 | 1014.0 |
| 20260504214253 | -17 | 0 | 1.6 | 16.1 | 0.00 | 0.00 | 0.00 | 10 | 1014.0 |
| 20260504213953 | -17 | 0 | 1.6 | 16.1 | 0.00 | 0.00 | 0.00 | 10 | 1014.0 |
| 20260504213653 | -17 | 0 | 1.6 | 16.1 | 0.00 | 0.00 | 0.00 | 10 | 1014.0 |
| 20260504213353 | -17 | 0 | 1.6 | 16.1 | 0.00 | 0.00 | 0.00 | 10 | 1014.0 |
| 20260504213053 | -17 | 45 | 1.6 | 16.1 | 0.00 | 0.00 | 0.00 | 10 | 1014.0 |
| 20260504212753 | -17 | 45 | 1.6 | 16.1 | 0.00 | 0.00 | 0.00 | 10 | 1014.0 |
| 20260504212454 | -17 | 45 | 1.6 | 16.1 | 0.00 | 0.00 | 0.00 | 10 | 1014.0 |
| 20260504212154 | -17 | 45 | 1.6 | 16.1 | 0.00 | 0.00 | 0.00 | 10 | 1014.0 |
| 20260504211854 | -17 | 45 | 1.6 | 16.1 | 0.00 | 0.00 | 0.00 | 10 | 1014.0 |
| 20260504211554 | -17 | 0 | 1.6 | 16.1 | 0.00 | 0.00 | 0.00 | 10 | 1014.0 |
| 20260504211254 | -17 | 0 | 1.6 | 16.1 | 0.00 | 0.00 | 0.00 | 10 | 1014.0 |
| 20260504210954 | -17 | 0 | 1.6 | 16.1 | 0.00 | 0.00 | 0.00 | 10 | 1014.0 |
| 20260504210654 | -17 | 0 | 1.6 | 16.1 | 0.00 | 0.00 | 0.00 | 10 | 1014.0 |
| 20260504210354 | -17 | 0 | 1.6 | 16.1 | 0.00 | 0.00 | 0.00 | 10 | 1014.0 |
| 20260504210054 | -17 | 0 | 1.6 | 16.1 | 0.00 | 0.00 | 0.00 | 10 | 1014.0 |
| 20260504205754 | -17 | 0 | 1.6 | 16.1 | 0.00 | 0.00 | 0.00 | 10 | 1014.0 |
| 20260504205454 | -17 | 0 | 1.6 | 16.1 | 0.00 | 0.00 | 0.00 | 10 | 1014.0 |
| 20260504205154 | -17 | 0 | 1.6 | 16.1 | 0.00 | 0.00 | 0.00 | 9 | 1014.0 |
| 20260504204854 | -17 | 0 | 1.6 | 16.1 | 0.00 | 0.00 | 0.00 | 9 | 1014.0 |
| 20260504204554 | -17 | 0 | 1.6 | 16.1 | 0.00 | 0.00 | 0.00 | 9 | 1014.0 |
| 20260504204254 | -17 | 0 | 1.6 | 16.1 | 0.00 | 0.00 | 0.00 | 9 | 1014.0 |
| 20260504203954 | -17 | 0 | 1.6 | 16.1 | 0.00 | 0.00 | 0.00 | 9 | 1014.0 |
| 20260504203654 | -17 | 0 | 1.6 | 16.1 | 0.00 | 0.00 | 0.00 | 9 | 1014.0 |
| 20260504203354 | -17 | 0 | 1.6 | 16.1 | 0.00 | 0.00 | 0.00 | 9 | 1014.0 |
| 20260504203054 | -17 | 0 | 1.6 | 16.1 | 0.00 | 0.00 | 0.00 | 9 | 1014.0 |
| 20260504202754 | -17 | 0 | 1.6 | 16.1 | 0.00 | 0.00 | 0.00 | 9 | 1014.0 |
| 20260504202454 | -17 | 0 | 1.6 | 16.1 | 0.00 | 0.00 | 0.00 | 9 | 1014.0 |
| 20260504202154 | -17 | 0 | 1.6 | 16.1 | 0.00 | 0.00 | 0.00 | 9 | 1014.0 |
| 20260504201854 | -17 | 0 | 1.6 | 16.1 | 0.00 | 0.00 | 0.00 | 9 | 1014.0 |
| 20260504201554 | -17 | 0 | 1.6 | 16.1 | 0.00 | 0.00 | 0.00 | 9 | 1014.0 |
| 20260504201254 | -17 | 0 | 1.6 | 16.1 | 0.00 | 0.00 | 0.00 | 9 | 1014.0 |
| 20260504200954 | -17 | 0 | 1.6 | 16.1 | 0.00 | 0.00 | 0.00 | 9 | 1014.0 |
| 20260504200654 | -17 | 0 | 1.6 | 16.1 | 0.00 | 0.00 | 0.00 | 9 | 1014.0 |
| 20260504200354 | -17 | 0 | 1.6 | 16.1 | 0.00 | 0.00 | 0.00 | 9 | 1014.0 |
| 20260504200054 | -17 | 0 | 1.6 | 16.1 | 0.00 | 0.00 | 0.00 | 9 | 1014.0 |
| 20260504195754 | -17 | 0 | 1.6 | 16.1 | 0.00 | 0.00 | 0.00 | 9 | 1014.0 |
| 20260504195453 | -17 | 0 | 1.6 | 16.1 | 0.00 | 0.00 | 0.00 | 9 | 1014.0 |
| 20260504195153 | -17 | 0 | 1.6 | 16.1 | 0.00 | 0.00 | 0.00 | 9 | 1014.0 |
| 20260504194853 | -17 | 0 | 1.6 | 16.1 | 0.00 | 0.00 | 0.00 | 9 | 1014.0 |
| 20260504194554 | -17 | 0 | 1.6 | 16.1 | 0.00 | 0.00 | 0.00 | 9 | 1014.0 |
| 20260504194253 | -17 | 0 | 1.6 | 16.1 | 0.00 | 0.00 | 0.00 | 9 | 1014.0 |
| 20260504193953 | -17 | 0 | 1.6 | 16.1 | 0.00 | 0.00 | 0.00 | 9 | 1014.0 |
| 20260504193653 | -17 | 0 | 1.6 | 16.1 | 0.00 | 0.00 | 0.00 | 9 | 1014.0 |
| 20260504193353 | -17 | 0 | 1.6 | 16.1 | 0.00 | 0.00 | 0.00 | 9 | 1014.0 |
| 20260504193053 | -17 | 0 | 1.6 | 16.1 | 0.00 | 0.00 | 0.00 | 9 | 1014.0 |
| 20260504192753 | -17 | 0 | 1.6 | 16.1 | 0.00 | 0.00 | 0.00 | 9 | 1014.0 |
| 20260504192453 | -17 | 0 | 1.6 | 22.5 | 0.00 | 0.00 | 0.00 | 9 | 1014.0 |
| 20260504192153 | -17 | 0 | 1.6 | 22.5 | 0.00 | 0.00 | 0.00 | 9 | 1014.0 |
| 20260504191853 | -17 | 0 | 1.6 | 22.5 | 0.00 | 0.00 | 0.00 | 9 | 1014.0 |
| 20260504191553 | -17 | 0 | 1.6 | 22.5 | 0.00 | 0.00 | 0.00 | 9 | 1014.0 |
| 20260504191253 | -17 | 0 | 1.6 | 22.5 | 0.00 | 0.00 | 0.00 | 9 | 1014.0 |
| 20260504190953 | -17 | 0 | 1.6 | 22.5 | 0.00 | 0.00 | 0.00 | 9 | 1014.0 |
| 20260504190653 | -17 | 0 | 1.6 | 22.5 | 0.00 | 0.00 | 0.00 | 9 | 1014.0 |
| 20260504190354 | -17 | 0 | 1.6 | 22.5 | 0.00 | 0.00 | 0.00 | 9 | 1014.0 |
| 20260504190053 | -17 | 0 | 1.6 | 22.5 | 0.00 | 0.00 | 0.00 | 9 | 1014.0 |
| 20260504185753 | -17 | 0 | 1.6 | 22.5 | 0.00 | 0.00 | 0.00 | 9 | 1014.0 |
| 20260504185453 | -17 | 0 | 1.6 | 22.5 | 0.00 | 0.00 | 0.00 | 9 | 1014.0 |
| 20260504185153 | -17 | 0 | 1.6 | 22.5 | 0.00 | 0.00 | 0.00 | 9 | 1014.0 |
| 20260504184853 | -17 | 0 | 1.6 | 22.5 | 0.00 | 0.00 | 0.00 | 9 | 1014.0 |
| 20260504184554 | -17 | 0 | 1.6 | 22.5 | 0.00 | 0.00 | 0.00 | 9 | 1014.0 |
| 20260504184253 | -17 | 0 | 1.6 | 22.5 | 0.00 | 0.00 | 0.00 | 9 | 1014.0 |
| 20260504183953 | -17 | 0 | 1.6 | 22.5 | 0.00 | 0.00 | 0.00 | 9 | 1014.0 |
| 20260504183653 | -17 | 0 | 1.6 | 22.5 | 0.00 | 0.00 | 0.00 | 9 | 1014.0 |
| 20260504183353 | -17 | 0 | 1.6 | 22.5 | 0.00 | 0.00 | 0.00 | 9 | 1014.0 |
| 20260504183053 | -17 | 0 | 1.6 | 22.5 | 0.00 | 0.00 | 0.00 | 9 | 1014.0 |
| 20260504182753 | -17 | 0 | 1.6 | 22.5 | 0.00 | 0.00 | 0.00 | 9 | 1014.0 |
| 20260504182453 | -17 | 0 | 1.6 | 22.5 | 0.00 | 0.00 | 0.00 | 9 | 1014.0 |
| 20260504182153 | -17 | 0 | 1.6 | 22.5 | 0.00 | 0.00 | 0.00 | 9 | 1014.0 |
| 20260504181853 | -17 | 270 | 11.3 | 98.2 | 0.00 | 0.00 | 0.00 | 9 | 1014.0 |
| 20260504181554 | -17 | 270 | 11.3 | 98.2 | 0.00 | 0.00 | 0.00 | 9 | 1014.0 |
| 20260504181253 | -17 | 270 | 11.3 | 98.2 | 0.00 | 0.00 | 0.00 | 9 | 1014.0 |
| 20260504180953 | -17 | 270 | 11.3 | 98.2 | 0.00 | 0.00 | 0.00 | 9 | 1014.0 |
| 20260504180653 | -17 | 270 | 11.3 | 98.2 | 0.00 | 0.00 | 0.00 | 9 | 1014.0 |
| 20260504180353 | -17 | 270 | 11.3 | 98.2 | 0.00 | 0.00 | 0.00 | 9 | 1014.0 |
| 20260504180053 | -17 | 270 | 11.3 | 98.2 | 0.00 | 0.00 | 0.00 | 9 | 1014.0 |
| 20260504175753 | -17 | 270 | 11.3 | 98.2 | 0.00 | 0.00 | 0.00 | 9 | 1014.0 |
| 20260504175453 | -17 | 270 | 11.3 | 98.2 | 0.00 | 0.00 | 0.00 | 9 | 1014.0 |
| 20260504175153 | -17 | 270 | 11.3 | 98.2 | 0.00 | 0.00 | 0.00 | 9 | 1014.0 |
| 20260504174853 | -17 | 270 | 11.3 | 98.2 | 0.00 | 0.00 | 0.00 | 9 | 1014.0 |
| 20260504174553 | -17 | 270 | 11.3 | 98.2 | 0.00 | 0.00 | 0.00 | 9 | 1014.0 |
| 20260504174253 | -17 | 270 | 11.3 | 98.2 | 0.00 | 0.00 | 0.00 | 9 | 1014.0 |
| 20260504173953 | -17 | 270 | 11.3 | 98.2 | 0.00 | 0.00 | 0.00 | 9 | 1014.0 |
| 20260504173653 | -17 | 270 | 11.3 | 98.2 | 0.00 | 0.00 | 0.00 | 9 | 1014.0 |
| 20260504173353 | -17 | 270 | 11.3 | 98.2 | 0.00 | 0.00 | 0.00 | 9 | 1014.0 |
| 20260504173053 | -17 | 270 | 11.3 | 98.2 | 0.00 | 0.00 | 0.00 | 9 | 1014.0 |
| 20260504172753 | -17 | 270 | 11.3 | 98.2 | 0.00 | 0.00 | 0.00 | 9 | 1014.0 |
| 20260504172453 | -17 | 270 | 11.3 | 98.2 | 0.00 | 0.00 | 0.00 | 9 | 1014.0 |
| 20260504172153 | -17 | 270 | 11.3 | 98.2 | 0.00 | 0.00 | 0.00 | 9 | 1014.0 |
| 20260504171853 | -17 | 270 | 11.3 | 98.2 | 0.00 | 0.00 | 0.00 | 9 | 1014.0 |
| 20260504171553 | -17 | 270 | 14.5 | 173.8 | 0.00 | 0.00 | 0.00 | 9 | 1015.0 |
| 20260504171253 | -17 | 270 | 14.5 | 173.8 | 0.00 | 0.00 | 0.00 | 9 | 1015.0 |
| 20260504170953 | -17 | 270 | 14.5 | 173.8 | 0.00 | 0.00 | 0.00 | 9 | 1015.0 |
| 20260504170653 | -17 | 270 | 14.5 | 173.8 | 0.00 | 0.00 | 0.00 | 9 | 1015.0 |
| 20260504170353 | -17 | 270 | 14.5 | 173.8 | 0.00 | 0.00 | 0.00 | 9 | 1015.0 |
| 20260504160353 | -17 | 270 | 20.9 | 178.6 | 0.00 | 0.00 | 0.00 | 8 | 1015.0 |
| 20260504150953 | -17 | 270 | 22.5 | 149.7 | 0.00 | 0.00 | 0.00 | 9 | 1014.0 |
| 20260504150653 | -17 | 270 | 22.5 | 149.7 | 0.00 | 0.00 | 0.00 | 9 | 1014.0 |
| 20260504150354 | -17 | 270 | 22.5 | 149.7 | 0.00 | 0.00 | 0.00 | 9 | 1014.0 |